createdAt,value
2024-01-05T00:01:10.145Z,97346.72
2024-01-05T00:04:11.833Z,97329.47
2024-01-05T00:07:13.581Z,97333.78
2024-01-05T00:10:15.269Z,97318.31
2024-01-05T00:13:17.074Z,97320.94
2024-01-05T00:16:44.225Z,97325.22
2024-01-05T00:19:46.019Z,97329.56
2024-01-05T00:22:47.664Z,97326.09
2024-01-05T00:25:49.225Z,97313.22
2024-01-05T00:28:51.937Z,97304.63
2024-01-05T00:31:53.485Z,97308.94
2024-01-05T00:34:55.064Z,97310.66
2024-01-05T00:37:56.646Z,97311.56
2024-01-05T00:40:58.215Z,97312.44
2024-01-05T00:43:59.926Z,97324.47
2024-01-05T00:47:01.489Z,97321.03
2024-01-05T00:50:03.238Z,97317.59
2024-01-05T00:53:04.822Z,97319.31
2024-01-05T00:56:06.651Z,97315.84
2024-01-05T00:59:08.659Z,97321.03
2024-01-05T01:02:10.315Z,97303.84
2024-01-05T01:05:11.956Z,97303.88
2024-01-05T01:08:16.445Z,97305.59
2024-01-05T01:11:18.267Z,97295.25
2024-01-05T01:14:20.123Z,97296.13
2024-01-05T01:17:23.485Z,97296.13
2024-01-05T01:20:25.466Z,97286.66
2024-01-05T01:23:27.096Z,97297.00
2024-01-05T01:26:28.680Z,97284.94
2024-01-05T01:29:30.288Z,97287.53
2024-01-05T01:32:31.889Z,97272.94
2024-01-05T01:35:34.965Z,97266.91
2024-01-05T01:38:37.438Z,97266.91
2024-01-05T01:41:39.021Z,97268.66
2024-01-05T01:44:40.582Z,97285.00
2024-01-05T01:47:42.286Z,97258.31
2024-01-05T01:50:43.971Z,97246.19
2024-01-05T01:53:45.640Z,97272.88
2024-01-05T01:56:47.190Z,97258.28
2024-01-05T01:59:48.740Z,97253.97
2024-01-05T02:02:50.927Z,97253.16
2024-01-05T02:05:52.558Z,97250.56
2024-01-05T02:08:54.141Z,97258.31
2024-01-05T02:11:55.786Z,97253.19
2024-01-05T02:14:57.446Z,97242.00
2024-01-05T02:17:59.297Z,97236.81
2024-01-05T02:21:01.737Z,97241.13
2024-01-05T02:24:03.522Z,97224.81
2024-01-05T02:27:05.440Z,97225.66
2024-01-05T02:30:07.440Z,97221.38
2024-01-05T02:33:09.184Z,97223.94
2024-01-05T02:36:10.835Z,97225.66
2024-01-05T02:39:13.518Z,97223.09
2024-01-05T02:42:15.212Z,97217.94
2024-01-05T02:45:21.923Z,97221.38
2024-01-05T02:48:23.566Z,97224.81
2024-01-05T02:51:25.450Z,97195.56
2024-01-05T02:54:27.069Z,97200.69
2024-01-05T02:57:28.976Z,97186.94
2024-01-05T03:00:30.753Z,97199.00
2024-01-05T03:03:32.499Z,97183.53
2024-01-05T03:06:34.192Z,97195.56
2024-01-05T03:09:36.070Z,97189.56
2024-01-05T03:12:37.864Z,97174.91
2024-01-05T03:15:39.538Z,97182.66
2024-01-05T03:18:41.289Z,97180.06
2024-01-05T03:21:42.966Z,97177.47
2024-01-05T03:24:45.143Z,97178.31
2024-01-05T03:27:46.740Z,97162.88
2024-01-05T03:30:48.530Z,97168.03
2024-01-05T03:33:50.837Z,97165.44
2024-01-05T03:36:54.515Z,97174.88
2024-01-05T03:39:56.228Z,97168.88
2024-01-05T03:42:58.274Z,97164.56
2024-01-05T03:46:00.199Z,97164.56
2024-01-05T03:49:04.519Z,97150.78
2024-01-05T03:52:06.354Z,97160.28
2024-01-05T03:55:08.337Z,97157.69
2024-01-05T03:58:10.401Z,97149.09
2024-01-05T04:01:12.008Z,97138.78
2024-01-05T04:04:14.012Z,97140.50
2024-01-05T04:07:15.762Z,97134.44
2024-01-05T04:10:17.358Z,97138.78
2024-01-05T04:13:18.970Z,97124.16
2024-01-05T04:16:20.527Z,97131.91
2024-01-05T04:19:22.609Z,97136.19
2024-01-05T04:22:24.264Z,97125.03
2024-01-05T04:25:25.857Z,97125.00
2024-01-05T04:28:27.420Z,97120.69
2024-01-05T04:31:29.021Z,97117.28
2024-01-05T04:34:30.936Z,97112.13
2024-01-05T04:37:32.636Z,97117.28
2024-01-05T04:40:34.154Z,97110.38
2024-01-05T04:43:35.676Z,97118.13
2024-01-05T04:46:37.292Z,97105.22
2024-01-05T04:49:38.888Z,97118.13
2024-01-05T04:52:40.511Z,97116.41
2024-01-05T04:55:42.070Z,97118.13
2024-01-05T04:58:43.665Z,97120.72
2024-01-05T05:01:45.445Z,97121.56
2024-01-05T05:04:48.796Z,97119.84
2024-01-05T05:07:50.615Z,97110.41
2024-01-05T05:10:52.200Z,97105.22
2024-01-05T05:13:53.744Z,97097.47
2024-01-05T05:16:55.352Z,97099.19
2024-01-05T05:19:56.971Z,97105.22
2024-01-05T05:22:58.592Z,97100.91
2024-01-05T05:26:00.236Z,97089.75
2024-01-05T05:29:01.794Z,97093.19
2024-01-05T05:32:03.462Z,97098.34
2024-01-05T05:35:06.210Z,97094.03
2024-01-05T05:38:07.778Z,97108.66
2024-01-05T05:41:09.393Z,97112.09
2024-01-05T05:44:11.017Z,97110.41
2024-01-05T05:47:12.550Z,97104.38
2024-01-05T05:50:14.614Z,97106.94
2024-01-05T05:53:16.191Z,97103.50
2024-01-05T05:56:17.795Z,97102.63
2024-01-05T05:59:19.365Z,97107.81
2024-01-05T06:02:20.936Z,97107.78
2024-01-05T06:05:22.985Z,97107.81
2024-01-05T06:08:24.577Z,97105.22
2024-01-05T06:11:28.121Z,97108.66
2024-01-05T06:14:30.073Z,97114.69
2024-01-05T06:17:31.733Z,97088.00
2024-01-05T06:20:33.380Z,97106.06
2024-01-05T06:23:35.031Z,97110.38
2024-01-05T06:26:36.633Z,97124.16
2024-01-05T06:29:38.474Z,97118.97
2024-01-05T06:32:40.086Z,97125.03
2024-01-05T06:35:41.686Z,97127.59
2024-01-05T06:38:43.254Z,97120.69
2024-01-05T06:41:45.102Z,97121.59
2024-01-05T06:44:46.941Z,97117.25
2024-01-05T06:47:48.578Z,97112.94
2024-01-05T06:50:50.258Z,97110.38
2024-01-05T06:53:52.001Z,97130.19
2024-01-05T06:56:53.937Z,97114.69
2024-01-05T06:59:55.802Z,97119.84
2024-01-05T07:02:57.503Z,97114.69
2024-01-05T07:05:59.141Z,97130.19
2024-01-05T07:09:00.822Z,97124.16
2024-01-05T07:12:03.990Z,97118.13
2024-01-05T07:15:06.892Z,97131.03
2024-01-05T07:18:08.653Z,97128.44
2024-01-05T07:21:10.563Z,97122.44
2024-01-05T07:24:20.344Z,97126.72
2024-01-05T07:27:22.045Z,97119.84
2024-01-05T07:30:23.918Z,97124.97
2024-01-05T07:33:25.916Z,97097.44
2024-01-05T07:36:27.510Z,97092.22
2024-01-05T07:39:29.112Z,97098.25
2024-01-05T07:42:32.114Z,97099.94
2024-01-05T07:45:33.748Z,97088.78
2024-01-05T07:48:35.859Z,97083.44
2024-01-05T07:51:39.412Z,97099.88
2024-01-05T07:54:42.953Z,97099.94
2024-01-05T07:57:48.159Z,97113.72
2024-01-05T08:00:50.378Z,97117.16
2024-01-05T08:03:52.203Z,97105.97
2024-01-05T08:06:53.856Z,97108.50
2024-01-05T08:09:55.848Z,97099.88
2024-01-05T08:12:57.409Z,97105.88
2024-01-05T08:15:58.943Z,97100.72
2024-01-05T08:19:00.613Z,97106.72
2024-01-05T08:22:02.533Z,97105.88
2024-01-05T08:25:04.816Z,97115.38
2024-01-05T08:28:06.389Z,97111.88
2024-01-05T08:31:09.022Z,97115.28
2024-01-05T08:34:10.869Z,97117.81
2024-01-05T08:37:12.510Z,97111.75
2024-01-05T08:40:14.368Z,97107.44
2024-01-05T08:43:15.956Z,97101.41
2024-01-05T08:46:17.575Z,97099.63
2024-01-05T08:49:19.238Z,97105.69
2024-01-05T08:52:20.841Z,97101.34
2024-01-05T08:55:22.590Z,97096.16
2024-01-05T08:58:24.145Z,97093.56
2024-01-05T09:01:25.894Z,97099.63
2024-01-05T09:04:27.468Z,97101.31
2024-01-05T09:07:29.031Z,97106.47
2024-01-05T09:10:34.093Z,97108.19
2024-01-05T09:13:38.307Z,97098.69
2024-01-05T09:16:41.029Z,97117.69
2024-01-05T09:19:43.534Z,97110.66
2024-01-05T09:22:45.095Z,97120.13
2024-01-05T09:25:46.843Z,97126.91
2024-01-05T09:28:48.517Z,97136.41
2024-01-05T09:31:51.391Z,97147.72
2024-01-05T09:34:53.135Z,97151.09
2024-01-05T09:37:54.702Z,97157.94
2024-01-05T09:40:56.714Z,97161.34
2024-01-05T09:43:58.363Z,97163.91
2024-01-05T09:47:00.044Z,97175.94
2024-01-05T09:50:01.729Z,97163.81
2024-01-05T09:53:05.673Z,97171.53
2024-01-05T09:56:07.448Z,97164.66
2024-01-05T09:59:08.973Z,97156.84
2024-01-05T10:02:13.165Z,97159.38
2024-01-05T10:05:14.893Z,97145.47
2024-01-05T10:08:16.498Z,97154.03
2024-01-05T10:11:38.110Z,97169.66
2024-01-05T10:14:40.042Z,97159.25
2024-01-05T10:17:41.747Z,97161.88
2024-01-05T10:20:43.997Z,97152.28
2024-01-05T10:23:45.673Z,97150.47
2024-01-05T10:26:47.214Z,97159.97
2024-01-05T10:29:48.749Z,97152.09
2024-01-05T10:33:07.465Z,97146.91
2024-01-05T10:36:09.407Z,97137.34
2024-01-05T10:39:11.058Z,97134.66
2024-01-05T10:42:23.899Z,97149.41
2024-01-05T10:45:26.314Z,97144.06
2024-01-05T10:48:28.138Z,97146.78
2024-01-05T10:51:29.915Z,97149.28
2024-01-05T10:54:32.695Z,97146.72
2024-01-05T10:57:36.614Z,97148.31
2024-01-05T11:00:39.455Z,97157.94
2024-01-05T11:03:41.724Z,97147.53
2024-01-05T11:06:43.384Z,97145.72
2024-01-05T11:09:57.936Z,97132.69
2024-01-05T11:13:31.329Z,97135.97
2024-01-05T11:17:07.798Z,97132.53
2024-01-05T11:20:36.795Z,97135.88
2024-01-05T11:23:39.089Z,97131.50
2024-01-05T11:26:43.583Z,97133.19
2024-01-05T11:29:52.531Z,97130.59
2024-01-05T11:32:54.406Z,97140.00
2024-01-05T11:35:56.065Z,97150.31
2024-01-05T11:38:59.076Z,97143.34
2024-01-05T11:42:00.955Z,97156.31
2024-01-05T11:45:06.347Z,97152.84
2024-01-05T11:48:08.160Z,97150.97
2024-01-05T11:51:10.383Z,97161.25
2024-01-05T11:54:12.785Z,97154.22
2024-01-05T11:57:14.361Z,97149.94
2024-01-05T12:00:16.310Z,97144.69
2024-01-05T12:03:18.623Z,97141.16
2024-01-05T12:06:22.450Z,97143.72
2024-01-05T12:09:24.125Z,97131.50
2024-01-05T12:12:27.151Z,97132.28
2024-01-05T12:15:29.065Z,97118.50
2024-01-05T12:18:37.680Z,97111.47
2024-01-05T12:21:40.766Z,97102.75
2024-01-05T12:24:42.354Z,97097.47
2024-01-05T12:27:43.983Z,97090.75
2024-01-05T12:30:45.699Z,97082.09
2024-01-05T12:33:47.627Z,97080.50
2024-01-05T12:36:49.412Z,97086.22
2024-01-05T12:39:51.687Z,97080.88
2024-01-05T12:42:54.053Z,97087.72
2024-01-05T12:45:55.535Z,97081.44
2024-01-05T12:48:57.164Z,97082.31
2024-01-05T12:51:59.159Z,97090.03
2024-01-05T12:55:00.885Z,97089.09
2024-01-05T12:58:06.019Z,97100.34
2024-01-05T13:01:20.674Z,97090.88
2024-01-05T13:04:36.660Z,97096.81
2024-01-05T13:07:42.386Z,97102.09
2024-01-05T13:10:44.072Z,97116.03
2024-01-05T13:13:45.882Z,97142.72
2024-01-05T13:16:48.005Z,97164.25
2024-01-05T13:19:50.079Z,97185.78
2024-01-05T13:22:59.402Z,97194.34
2024-01-05T13:26:01.728Z,97191.72
2024-01-05T13:29:03.598Z,97195.97
2024-01-05T13:32:05.648Z,97199.38
2024-01-05T13:35:07.732Z,97203.69
2024-01-05T13:38:09.254Z,97216.72
2024-01-05T13:41:10.797Z,97208.09
2024-01-05T13:44:12.630Z,97207.22
2024-01-05T13:47:14.128Z,97220.16
2024-01-05T13:50:15.860Z,97219.31
2024-01-05T13:53:17.424Z,97223.63
2024-01-05T13:56:19.186Z,97219.25
2024-01-05T13:59:20.735Z,97233.28
2024-01-05T14:02:22.255Z,97227.34
2024-01-05T14:05:23.972Z,97242.91
2024-01-05T14:08:25.950Z,97253.41
2024-01-05T14:11:27.702Z,97244.78
2024-01-05T14:14:29.371Z,97249.13
2024-01-05T14:17:30.937Z,97256.06
2024-01-05T14:20:32.531Z,97252.56
2024-01-05T14:23:36.845Z,97260.63
2024-01-05T14:26:39.680Z,97255.19
2024-01-05T14:29:42.174Z,97257.88
2024-01-05T14:32:43.739Z,97264.97
2024-01-05T14:35:46.240Z,97260.53
2024-01-05T14:38:47.754Z,97258.06
2024-01-05T14:41:49.518Z,97258.84
2024-01-05T14:44:51.081Z,97255.41
2024-01-05T14:47:52.783Z,97264.13
2024-01-05T14:50:55.395Z,97270.28
2024-01-05T14:53:57.000Z,97262.59
2024-01-05T14:56:58.606Z,97269.44
2024-01-05T15:00:00.486Z,97271.25
2024-01-05T15:03:05.157Z,97260.94
2024-01-05T15:06:07.973Z,97260.25
2024-01-05T15:09:09.868Z,97260.22
2024-01-05T15:12:11.722Z,97255.97
2024-01-05T15:15:13.481Z,97249.97
2024-01-05T15:18:15.174Z,97243.09
2024-01-05T15:21:26.668Z,97224.09
2024-01-05T15:24:28.492Z,97218.22
2024-01-05T15:27:30.159Z,97231.25
2024-01-05T15:30:31.721Z,97218.38
2024-01-05T15:33:33.418Z,97213.38
2024-01-05T15:36:35.006Z,97213.44
2024-01-05T15:39:39.958Z,97215.19
2024-01-05T15:42:41.895Z,97210.13
2024-01-05T15:45:43.516Z,97204.94
2024-01-05T15:48:45.370Z,97198.06
2024-01-05T15:51:49.592Z,97190.28
2024-01-05T15:54:51.220Z,97187.69
2024-01-05T15:57:52.931Z,97190.31
2024-01-05T16:00:54.958Z,97189.47
2024-01-05T16:03:56.661Z,97181.78
2024-01-05T16:06:58.327Z,97178.34
2024-01-05T16:09:59.921Z,97179.22
2024-01-05T16:13:01.466Z,97184.41
2024-01-05T16:16:13.675Z,97172.38
2024-01-05T16:19:15.389Z,97179.31
2024-01-05T16:22:17.002Z,97164.66
2024-01-05T16:25:18.636Z,97171.59
2024-01-05T16:28:20.207Z,97176.78
2024-01-05T16:31:22.038Z,97171.66
2024-01-05T16:34:23.779Z,97172.63
2024-01-05T16:37:25.403Z,97168.31
2024-01-05T16:40:27.017Z,97170.97
2024-01-05T16:43:28.560Z,97175.28
2024-01-05T16:46:31.074Z,97175.31
2024-01-05T16:49:32.793Z,97169.31
2024-01-05T16:52:34.557Z,97158.22
2024-01-05T16:55:36.383Z,97147.91
2024-01-05T16:58:37.961Z,97160.00
2024-01-05T17:01:39.678Z,97153.97
2024-01-05T17:04:41.515Z,97152.34
2024-01-05T17:07:43.152Z,97159.22
2024-01-05T17:10:46.675Z,97166.16
2024-01-05T17:13:48.289Z,97166.13
2024-01-05T17:16:51.167Z,97167.88
2024-01-05T17:19:54.205Z,97165.28
2024-01-05T17:23:01.782Z,97158.31
2024-01-05T17:26:04.146Z,97166.16
2024-01-05T17:29:05.743Z,97170.50
2024-01-05T17:32:07.438Z,97172.28
2024-01-05T17:35:09.611Z,97170.56
2024-01-05T17:38:11.217Z,97173.19
2024-01-05T17:41:12.742Z,97176.63
2024-01-05T17:44:14.452Z,97174.91
2024-01-05T17:47:15.984Z,97185.25
2024-01-05T17:50:17.517Z,97180.97
2024-01-05T17:53:19.053Z,97186.13
2024-01-05T17:56:21.989Z,97183.66
2024-01-05T17:59:24.097Z,97181.91
2024-01-05T18:02:25.698Z,97191.41
2024-01-05T18:05:27.219Z,97194.16
2024-01-05T18:08:29.371Z,97181.16
2024-01-05T18:11:31.247Z,97188.00
2024-01-05T18:14:33.743Z,97189.72
2024-01-05T18:17:35.569Z,97188.91
2024-01-05T18:20:37.460Z,97175.97
2024-01-05T18:23:39.018Z,97182.00
2024-01-05T18:26:40.792Z,97176.88
2024-01-05T18:29:42.582Z,97182.03
2024-01-05T18:32:44.280Z,97188.13
2024-01-05T18:35:48.097Z,97189.94
2024-01-05T18:38:49.971Z,97186.56
2024-01-05T18:41:51.581Z,97179.66
2024-01-05T18:44:53.272Z,97190.88
2024-01-05T18:47:54.937Z,97194.28
2024-01-05T18:50:57.544Z,97204.63
2024-01-05T18:54:00.315Z,97204.59
2024-01-05T18:57:05.717Z,97207.22
2024-01-05T19:00:08.055Z,97208.91
2024-01-05T19:07:31.437Z,97210.66
2024-01-05T19:10:33.759Z,97220.16
2024-01-05T19:13:35.389Z,97216.69
2024-01-05T19:16:42.553Z,97219.31
2024-01-05T19:19:44.319Z,97224.50
2024-01-05T19:22:46.048Z,97216.72
2024-01-05T19:25:47.634Z,97221.03
2024-01-05T19:28:49.308Z,97215.06
2024-01-05T19:31:51.020Z,97230.56
2024-01-05T19:34:54.992Z,97228.97
2024-01-05T19:37:57.467Z,97228.06
2024-01-05T19:40:59.543Z,97233.22
2024-01-05T19:44:01.245Z,97223.78
2024-01-05T19:47:03.432Z,97229.78
2024-01-05T19:50:05.413Z,97224.59
2024-01-05T19:53:07.052Z,97236.66
2024-01-05T19:56:08.704Z,97238.38
2024-01-05T19:59:14.501Z,97242.72
2024-01-05T20:02:16.962Z,97235.81
2024-01-05T20:05:18.382Z,97240.09
2024-01-05T20:08:20.774Z,97231.50
2024-01-05T20:11:22.316Z,97238.44
2024-01-05T20:14:25.515Z,97234.97
2024-01-05T20:17:27.224Z,97241.00
2024-01-05T20:20:41.539Z,97227.19
2024-01-05T20:23:46.199Z,97233.22
2024-01-05T20:27:09.386Z,97234.94
2024-01-05T20:30:13.345Z,97236.69
2024-01-05T20:34:02.460Z,97227.19
2024-01-05T20:37:04.236Z,97231.50
2024-01-05T20:43:50.276Z,97235.81
2024-01-05T20:47:35.919Z,97241.88
2024-01-05T20:50:37.657Z,97237.59
2024-01-05T20:53:39.244Z,97245.38
2024-01-05T20:56:40.807Z,97238.50
2024-01-05T20:59:43.569Z,97244.50
2024-01-05T21:02:45.136Z,97246.22
2024-01-05T21:05:46.764Z,97246.25
2024-01-05T21:08:48.532Z,97247.13
2024-01-05T21:11:50.449Z,97251.41
2024-01-05T21:14:52.106Z,97252.28
2024-01-05T21:17:53.854Z,97253.16
2024-01-05T21:20:56.538Z,97255.72
2024-01-05T21:28:21.490Z,97254.91
2024-01-05T21:31:23.242Z,97253.16
2024-01-05T21:34:24.966Z,97254.03
2024-01-05T21:37:26.562Z,97254.03
2024-01-05T21:40:28.157Z,97248.84
2024-01-05T21:43:29.920Z,97248.84
2024-01-05T21:46:31.468Z,97248.00
2024-01-05T21:49:33.704Z,97254.91
2024-01-05T21:52:35.404Z,97253.16
2024-01-05T21:55:37.572Z,97246.28
2024-01-05T21:58:39.201Z,97231.66
2024-01-05T22:02:27.783Z,97239.38
2024-01-05T22:05:29.755Z,97245.44
2024-01-05T22:08:31.339Z,97241.13
2024-01-05T22:11:32.900Z,97242.88
2024-01-05T22:14:34.390Z,97247.19
2024-01-05T22:17:36.021Z,97245.47
2024-01-05T22:20:37.627Z,97244.59
2024-01-05T22:23:41.681Z,97254.09
2024-01-05T22:26:43.817Z,97248.94
2024-01-05T22:29:45.468Z,97255.84
2024-01-05T22:32:47.144Z,97258.44
2024-01-05T22:35:49.436Z,97251.53
2024-01-05T22:38:51.812Z,97255.84
2024-01-05T22:41:54.313Z,97256.69
2024-01-05T22:44:55.766Z,97261.88
2024-01-05T22:47:57.341Z,97256.69
2024-01-05T22:50:58.938Z,97262.72
2024-01-05T22:58:23.126Z,97261.03
2024-01-05T23:01:24.781Z,97262.75
2024-01-05T23:04:27.626Z,97263.59
2024-01-05T23:07:29.648Z,97269.63
2024-01-05T23:10:31.972Z,97265.31
2024-01-05T23:13:33.886Z,97265.31
2024-01-05T23:16:35.439Z,97259.31
2024-01-05T23:19:38.381Z,97265.31
2024-01-05T23:22:40.038Z,97269.63
2024-01-05T23:25:41.620Z,97264.47
2024-01-05T23:28:44.018Z,97269.63
2024-01-05T23:31:45.650Z,97264.44
2024-01-05T23:34:47.397Z,97267.03
2024-01-05T23:37:49.014Z,97255.88
2024-01-05T23:40:50.645Z,97264.44
2024-01-05T23:43:52.333Z,97267.03
2024-01-05T23:46:55.783Z,97265.34
2024-01-05T23:49:58.028Z,97273.06
2024-01-05T23:53:01.647Z,97264.44
2024-01-05T23:56:04.671Z,97267.03
2024-01-05T23:59:06.253Z,97267.03
